Time;durP1;ratioP1;P1;durP2;ratioP2;P2;SDS_P1;SDS_P2;PMS_P1;PMS_P2;Temp;Humidity;BMP_temperature;BMP_pressure;BME280_temperature;BME280_humidity;BME280_pressure;Samples;Min_cycle;Max_cycle;Signal;HPM_P1;HPM_P2
2023/07/18 00:00:18;;;;;;;7.00;1.70;;;;;;;;;;5102639;28;20143;-60
2023/07/18 00:02:45;;;;;;;4.07;1.50;;;;;;;;;;5104995;27;20171;-60
2023/07/18 00:05:12;;;;;;;9.07;1.73;;;;;;;;;;5118647;27;20105;-61
2023/07/18 00:07:40;;;;;;;7.90;1.65;;;;;;;;;;5085935;27;20057;-59
2023/07/18 00:10:08;;;;;;;3.42;1.48;;;;;;;;;;5100250;27;20048;-63
2023/07/18 00:12:35;;;;;;;3.90;1.45;;;;;;;;;;5104400;28;20423;-59
2023/07/18 00:15:03;;;;;;;5.30;1.60;;;;;;;;;;5086667;28;20052;-63
2023/07/18 00:17:31;;;;;;;2.22;1.17;;;;;;;;;;5103068;27;20052;-62
2023/07/18 00:19:59;;;;;;;11.52;1.38;;;;;;;;;;5096331;28;20052;-63
2023/07/18 00:22:25;;;;;;;7.18;2.15;;;;;;;;;;5096001;27;20150;-60
2023/07/18 00:24:51;;;;;;;5.45;1.27;;;;;;;;;;5102464;28;20056;-63
2023/07/18 00:27:18;;;;;;;5.30;1.70;;;;;;;;;;5095022;27;20060;-63
2023/07/18 00:29:44;;;;;;;9.00;2.15;;;;;;;;;;5099260;28;20056;-61
2023/07/18 00:32:11;;;;;;;5.78;1.48;;;;;;;;;;5096711;28;20048;-62
2023/07/18 00:34:40;;;;;;;10.32;2.78;;;;;;;;;;5098091;27;20099;-63
2023/07/18 00:37:07;;;;;;;5.13;1.67;;;;;;;;;;5087306;27;20088;-62
2023/07/18 00:39:34;;;;;;;5.28;1.30;;;;;;;;;;5084143;27;20052;-61
2023/07/18 00:42:00;;;;;;;7.57;1.65;;;;;;;;;;5084884;28;20110;-62
2023/07/18 00:44:27;;;;;;;6.13;1.48;;;;;;;;;;5083722;28;20618;-63
2023/07/18 00:46:53;;;;;;;4.50;1.50;;;;;;;;;;5084057;27;20049;-62
2023/07/18 00:49:20;;;;;;;6.90;1.55;;;;;;;;;;5094995;27;20613;-62
2023/07/18 00:51:46;;;;;;;3.30;1.05;;;;;;;;;;5091317;27;20075;-61
2023/07/18 00:54:13;;;;;;;3.22;1.40;;;;;;;;;;5100906;28;20072;-60
2023/07/18 00:56:39;;;;;;;11.50;1.77;;;;;;;;;;5084365;28;20476;-62
2023/07/18 00:59:06;;;;;;;8.15;1.20;;;;;;;;;;5084896;28;20048;-63
2023/07/18 01:01:34;;;;;;;5.38;1.45;;;;;;;;;;5088699;27;20088;-60
2023/07/18 01:04:00;;;;;;;11.32;1.83;;;;;;;;;;5104301;27;20072;-61
2023/07/18 01:06:27;;;;;;;5.40;1.48;;;;;;;;;;5113005;27;20049;-62
2023/07/18 01:08:53;;;;;;;5.40;1.60;;;;;;;;;;5083026;28;20048;-64
2023/07/18 01:11:21;;;;;;;5.20;1.30;;;;;;;;;;5095678;28;20056;-63
2023/07/18 01:13:47;;;;;;;4.40;1.10;;;;;;;;;;5096451;27;20051;-63
2023/07/18 01:16:14;;;;;;;5.63;1.42;;;;;;;;;;5100823;27;20105;-58
2023/07/18 01:18:40;;;;;;;7.43;2.67;;;;;;;;;;5092500;27;20540;-63
2023/07/18 01:21:09;;;;;;;5.72;1.40;;;;;;;;;;5099928;28;20052;-64
2023/07/18 01:23:35;;;;;;;9.63;1.90;;;;;;;;;;5090630;27;20684;-63
2023/07/18 01:26:02;;;;;;;5.50;1.40;;;;;;;;;;5091601;27;20051;-63
2023/07/18 01:28:29;;;;;;;3.25;1.35;;;;;;;;;;5090580;27;20355;-60
2023/07/18 01:30:56;;;;;;;7.03;1.30;;;;;;;;;;5102436;27;20057;-59
2023/07/18 01:33:22;;;;;;;5.72;1.42;;;;;;;;;;5103988;28;20056;-63
2023/07/18 01:35:51;;;;;;;4.00;1.52;;;;;;;;;;5083542;27;20084;-60
2023/07/18 01:38:18;;;;;;;6.38;1.58;;;;;;;;;;5110320;27;20060;-61
2023/07/18 01:40:44;;;;;;;4.18;1.80;;;;;;;;;;5101766;28;20052;-63
2023/07/18 01:43:11;;;;;;;5.68;1.40;;;;;;;;;;5101861;27;20056;-59
2023/07/18 01:45:38;;;;;;;3.35;1.50;;;;;;;;;;5086116;27;20520;-62
2023/07/18 01:48:05;;;;;;;7.75;1.48;;;;;;;;;;5095229;27;20048;-62
2023/07/18 01:50:32;;;;;;;5.55;1.20;;;;;;;;;;5087451;28;20107;-62
2023/07/18 01:52:58;;;;;;;4.65;1.30;;;;;;;;;;5111619;27;20531;-63
2023/07/18 01:55:25;;;;;;;5.22;1.60;;;;;;;;;;5097896;27;20056;-61
2023/07/18 01:57:52;;;;;;;4.80;1.35;;;;;;;;;;5100144;28;20055;-63
2023/07/18 02:00:19;;;;;;;2.80;1.40;;;;;;;;;;5102840;27;20109;-63
2023/07/18 02:02:51;;;;;;;3.75;1.45;;;;;;;;;;5091365;28;20052;-63
2023/07/18 02:05:19;;;;;;;6.80;1.55;;;;;;;;;;5105957;27;20044;-62
2023/07/18 02:07:46;;;;;;;2.88;1.40;;;;;;;;;;5123432;27;20062;-64
2023/07/18 02:10:19;;;;;;;11.70;1.75;;;;;;;;;;5088035;27;20044;-63
2023/07/18 02:12:50;;;;;;;9.18;2.08;;;;;;;;;;5102621;28;20056;-62
2023/07/18 02:15:17;;;;;;;4.95;1.73;;;;;;;;;;5083017;28;20495;-63
2023/07/18 02:17:44;;;;;;;5.60;1.67;;;;;;;;;;5095101;28;20529;-62
2023/07/18 02:20:11;;;;;;;6.20;1.33;;;;;;;;;;5103101;27;20136;-61
2023/07/18 02:22:40;;;;;;;9.10;1.38;;;;;;;;;;5101128;27;20058;-56
2023/07/18 02:25:07;;;;;;;4.53;1.85;;;;;;;;;;5087153;27;20045;-64
2023/07/18 02:27:35;;;;;;;6.45;1.90;;;;;;;;;;5102788;28;20551;-63
2023/07/18 02:30:01;;;;;;;5.35;1.63;;;;;;;;;;5103430;27;20135;-62
2023/07/18 02:32:29;;;;;;;8.02;2.05;;;;;;;;;;5101780;28;20076;-61
2023/07/18 02:34:56;;;;;;;3.35;1.40;;;;;;;;;;5091487;27;20608;-60
2023/07/18 02:37:25;;;;;;;5.65;1.58;;;;;;;;;;5083011;28;20056;-60
2023/07/18 02:39:52;;;;;;;3.00;1.48;;;;;;;;;;5089762;27;20052;-62
2023/07/18 02:42:19;;;;;;;5.68;1.58;;;;;;;;;;5103198;28;20058;-63
2023/07/18 02:44:46;;;;;;;6.50;1.50;;;;;;;;;;5090755;27;20139;-61
2023/07/18 02:47:13;;;;;;;7.53;1.65;;;;;;;;;;5089696;27;20814;-61
2023/07/18 02:49:40;;;;;;;7.20;1.50;;;;;;;;;;5106536;27;20051;-62
2023/07/18 02:52:07;;;;;;;6.65;1.45;;;;;;;;;;5083037;28;20435;-61
2023/07/18 02:54:33;;;;;;;6.57;1.90;;;;;;;;;;5083780;27;20056;-61
2023/07/18 02:57:00;;;;;;;8.20;2.15;;;;;;;;;;5087380;27;20147;-60
2023/07/18 02:59:26;;;;;;;4.85;2.00;;;;;;;;;;5084386;28;20059;-61
2023/07/18 03:01:54;;;;;;;4.82;1.70;;;;;;;;;;5100480;27;20080;-62
2023/07/18 03:04:21;;;;;;;6.70;2.70;;;;;;;;;;5087520;27;20062;-62
2023/07/18 03:06:47;;;;;;;6.68;1.85;;;;;;;;;;5075130;27;20056;-61
2023/07/18 03:09:17;;;;;;;9.18;2.20;;;;;;;;;;5094186;27;20064;-64
2023/07/18 03:11:43;;;;;;;4.20;1.70;;;;;;;;;;5101170;28;20490;-63
2023/07/18 03:14:11;;;;;;;3.25;1.42;;;;;;;;;;5105874;28;20047;-58
2023/07/18 03:16:38;;;;;;;4.60;1.80;;;;;;;;;;5105326;27;20062;-63
2023/07/18 03:19:05;;;;;;;9.00;1.73;;;;;;;;;;5085456;28;20049;-58
2023/07/18 03:21:32;;;;;;;5.72;1.77;;;;;;;;;;5098221;27;20515;-63
2023/07/18 03:23:58;;;;;;;4.53;1.65;;;;;;;;;;5086388;28;20080;-60
2023/07/18 03:26:24;;;;;;;5.25;1.67;;;;;;;;;;5103768;28;20048;-61
2023/07/18 03:28:51;;;;;;;2.47;1.50;;;;;;;;;;5093154;27;20462;-62
2023/07/18 03:31:17;;;;;;;7.43;1.30;;;;;;;;;;5105100;27;20059;-63
2023/07/18 03:33:44;;;;;;;7.00;2.78;;;;;;;;;;5103324;27;20059;-62
2023/07/18 03:36:10;;;;;;;3.70;1.83;;;;;;;;;;5087682;27;20155;-63
2023/07/18 03:38:37;;;;;;;5.65;1.73;;;;;;;;;;5104438;27;20048;-61
2023/07/18 03:41:04;;;;;;;9.00;2.10;;;;;;;;;;5095291;28;20570;-63
2023/07/18 03:43:30;;;;;;;8.73;1.95;;;;;;;;;;5100634;27;20140;-59
2023/07/18 03:45:57;;;;;;;5.07;2.08;;;;;;;;;;5109974;27;20136;-63
2023/07/18 03:48:26;;;;;;;10.00;2.20;;;;;;;;;;5091512;27;20060;-60
2023/07/18 03:50:53;;;;;;;3.13;1.75;;;;;;;;;;5092100;28;20055;-62
2023/07/18 03:53:20;;;;;;;6.10;1.90;;;;;;;;;;5103713;27;20059;-63
2023/07/18 03:55:46;;;;;;;3.90;1.80;;;;;;;;;;5096376;27;20063;-63
2023/07/18 03:58:12;;;;;;;11.88;2.63;;;;;;;;;;5098646;28;20052;-60
2023/07/18 04:00:39;;;;;;;7.55;2.30;;;;;;;;;;5096194;27;20147;-58
2023/07/18 04:03:05;;;;;;;3.33;1.70;;;;;;;;;;5108289;27;20582;-61
2023/07/18 04:05:32;;;;;;;11.40;1.92;;;;;;;;;;5084825;28;20485;-60
2023/07/18 04:07:58;;;;;;;3.40;1.75;;;;;;;;;;5088355;27;20182;-62
2023/07/18 04:10:25;;;;;;;5.70;2.08;;;;;;;;;;5094472;28;20086;-61
2023/07/18 04:12:51;;;;;;;3.15;1.60;;;;;;;;;;5086771;28;20055;-60
2023/07/18 04:15:18;;;;;;;4.82;1.88;;;;;;;;;;5087413;27;20896;-63
2023/07/18 04:17:44;;;;;;;4.93;2.20;;;;;;;;;;5092195;27;20083;-63
2023/07/18 04:20:11;;;;;;;5.18;1.90;;;;;;;;;;5091427;27;20139;-61
2023/07/18 04:22:37;;;;;;;5.20;1.95;;;;;;;;;;5102896;27;20105;-64
2023/07/18 04:25:04;;;;;;;6.40;2.00;;;;;;;;;;5094827;28;20053;-62
2023/07/18 04:27:31;;;;;;;6.70;2.00;;;;;;;;;;5099750;27;20052;-62
2023/07/18 04:29:58;;;;;;;8.45;1.95;;;;;;;;;;5096817;27;20064;-64
2023/07/18 04:32:25;;;;;;;3.33;1.67;;;;;;;;;;5100506;28;20044;-62
2023/07/18 04:34:51;;;;;;;4.20;1.80;;;;;;;;;;5104066;28;20048;-62
2023/07/18 04:37:17;;;;;;;3.15;1.88;;;;;;;;;;5088704;28;20052;-61
2023/07/18 04:39:44;;;;;;;6.13;1.65;;;;;;;;;;5085195;28;20056;-60
2023/07/18 04:42:11;;;;;;;8.13;2.17;;;;;;;;;;5093188;27;20056;-62
2023/07/18 04:44:37;;;;;;;6.00;2.00;;;;;;;;;;5112734;27;20054;-63
2023/07/18 04:47:04;;;;;;;4.20;1.77;;;;;;;;;;5110447;27;20048;-60
2023/07/18 04:49:31;;;;;;;5.68;2.08;;;;;;;;;;5103884;28;20143;-63
2023/07/18 04:51:58;;;;;;;3.13;2.20;;;;;;;;;;5103366;27;20063;-63
2023/07/18 04:54:25;;;;;;;5.95;1.60;;;;;;;;;;5107323;27;20189;-61
2023/07/18 04:56:53;;;;;;;4.05;2.05;;;;;;;;;;5095386;27;20471;-63
2023/07/18 04:59:20;;;;;;;3.17;1.73;;;;;;;;;;5092423;27;20062;-63
2023/07/18 05:01:50;;;;;;;4.45;1.88;;;;;;;;;;5104564;28;20051;-63
2023/07/18 05:04:17;;;;;;;4.68;1.70;;;;;;;;;;5095155;27;20103;-63
2023/07/18 05:06:43;;;;;;;7.88;2.03;;;;;;;;;;5095704;27;20060;-63
2023/07/18 05:09:10;;;;;;;5.43;2.17;;;;;;;;;;5085280;27;20052;-63
2023/07/18 05:11:36;;;;;;;3.47;2.00;;;;;;;;;;5091670;28;20084;-59
2023/07/18 05:14:03;;;;;;;8.25;2.40;;;;;;;;;;5104240;27;20135;-62
2023/07/18 05:16:30;;;;;;;11.70;2.30;;;;;;;;;;5106949;27;20044;-59
2023/07/18 05:18:56;;;;;;;3.13;1.40;;;;;;;;;;5083269;27;20057;-62
2023/07/18 05:21:23;;;;;;;6.25;2.10;;;;;;;;;;5098742;27;20052;-59
2023/07/18 05:23:50;;;;;;;12.02;3.05;;;;;;;;;;5083377;28;20059;-64
2023/07/18 05:26:16;;;;;;;10.90;2.70;;;;;;;;;;5093915;27;20583;-62
2023/07/18 05:28:42;;;;;;;8.95;3.10;;;;;;;;;;5093830;28;20117;-63
2023/07/18 05:31:10;;;;;;;8.13;2.28;;;;;;;;;;5074187;28;20075;-59
2023/07/18 05:33:36;;;;;;;5.57;2.45;;;;;;;;;;5097401;28;20056;-64
2023/07/18 05:36:04;;;;;;;7.45;2.47;;;;;;;;;;5100200;27;20520;-61
2023/07/18 05:38:30;;;;;;;7.53;2.58;;;;;;;;;;5083082;28;20562;-60
2023/07/18 05:40:56;;;;;;;5.18;2.25;;;;;;;;;;5083942;28;20056;-63
2023/07/18 05:43:23;;;;;;;9.32;2.78;;;;;;;;;;5087629;27;21120;-63
2023/07/18 05:45:49;;;;;;;6.15;2.00;;;;;;;;;;5094092;27;20499;-63
2023/07/18 05:48:16;;;;;;;8.43;2.70;;;;;;;;;;5103693;27;20167;-59
2023/07/18 05:50:42;;;;;;;5.03;2.95;;;;;;;;;;5112849;27;20855;-64
2023/07/18 05:53:09;;;;;;;12.32;3.13;;;;;;;;;;5091355;27;20052;-63
2023/07/18 05:55:35;;;;;;;10.02;2.80;;;;;;;;;;5103382;27;20052;-62
2023/07/18 05:58:02;;;;;;;4.22;2.13;;;;;;;;;;5101268;28;20044;-59
2023/07/18 06:00:28;;;;;;;7.93;2.70;;;;;;;;;;5098821;27;20086;-60
2023/07/18 06:02:55;;;;;;;5.47;2.08;;;;;;;;;;5100446;27;20277;-62
2023/07/18 06:05:24;;;;;;;6.40;1.92;;;;;;;;;;5102634;27;20059;-59
2023/07/18 06:07:52;;;;;;;6.88;2.13;;;;;;;;;;5089267;28;20383;-63
2023/07/18 06:10:18;;;;;;;9.48;2.95;;;;;;;;;;5102281;27;20180;-61
2023/07/18 06:12:45;;;;;;;7.65;1.80;;;;;;;;;;5092617;28;20059;-63
2023/07/18 06:15:11;;;;;;;10.90;3.42;;;;;;;;;;5088342;28;20171;-63
2023/07/18 06:17:38;;;;;;;4.43;1.98;;;;;;;;;;5088180;27;20055;-63
2023/07/18 06:20:14;;;;;;;8.48;2.47;;;;;;;;;;5093485;27;20058;-63
2023/07/18 06:22:41;;;;;;;8.98;2.60;;;;;;;;;;5099587;27;20156;-63
2023/07/18 06:25:08;;;;;;;7.43;2.13;;;;;;;;;;5084876;28;20103;-59
2023/07/18 06:27:34;;;;;;;4.88;2.17;;;;;;;;;;5090011;28;20498;-62
2023/07/18 06:30:01;;;;;;;7.93;3.00;;;;;;;;;;5103016;27;20055;-63
2023/07/18 06:32:28;;;;;;;3.42;1.85;;;;;;;;;;5101426;27;20095;-59
2023/07/18 06:34:55;;;;;;;6.40;2.40;;;;;;;;;;5107717;27;20106;-64
2023/07/18 06:37:26;;;;;;;10.07;2.80;;;;;;;;;;5103129;27;20048;-63
2023/07/18 06:39:53;;;;;;;4.80;2.42;;;;;;;;;;5103342;28;20105;-60
2023/07/18 06:42:19;;;;;;;8.05;1.98;;;;;;;;;;5101732;27;20608;-59
2023/07/18 06:44:46;;;;;;;7.78;2.65;;;;;;;;;;5123697;27;20562;-60
2023/07/18 06:47:13;;;;;;;5.50;2.50;;;;;;;;;;5121103;27;20054;-62
2023/07/18 06:49:40;;;;;;;9.45;2.15;;;;;;;;;;5123279;27;20285;-61
2023/07/18 06:52:06;;;;;;;7.50;2.50;;;;;;;;;;5106632;27;20619;-60
2023/07/18 06:54:33;;;;;;;6.28;2.53;;;;;;;;;;5102143;27;20094;-59
2023/07/18 06:57:00;;;;;;;12.25;2.75;;;;;;;;;;5102915;27;20627;-62
2023/07/18 06:59:27;;;;;;;5.57;2.28;;;;;;;;;;5113326;27;20521;-61
2023/07/18 07:01:53;;;;;;;9.90;3.10;;;;;;;;;;5123993;27;20093;-62
2023/07/18 07:04:19;;;;;;;9.30;2.63;;;;;;;;;;5105942;27;20291;-63
2023/07/18 07:06:46;;;;;;;10.05;2.60;;;;;;;;;;5101966;28;20059;-62
2023/07/18 07:09:13;;;;;;;15.73;3.05;;;;;;;;;;5103019;27;20055;-62
2023/07/18 07:11:40;;;;;;;8.38;2.25;;;;;;;;;;5101097;27;20056;-62
2023/07/18 07:14:07;;;;;;;4.57;2.15;;;;;;;;;;5112559;27;20472;-60
2023/07/18 07:16:35;;;;;;;11.15;4.18;;;;;;;;;;5102911;27;20122;-60
2023/07/18 07:19:02;;;;;;;10.75;2.55;;;;;;;;;;5103554;28;20661;-61
2023/07/18 07:21:28;;;;;;;18.05;3.13;;;;;;;;;;5103262;28;20125;-63
2023/07/18 07:23:55;;;;;;;9.00;3.33;;;;;;;;;;5103017;28;20051;-61
2023/07/18 07:26:24;;;;;;;14.80;2.90;;;;;;;;;;5104107;27;20122;-63
2023/07/18 07:28:50;;;;;;;16.73;2.92;;;;;;;;;;5113186;27;20055;-61
2023/07/18 07:31:17;;;;;;;7.45;2.45;;;;;;;;;;5102166;28;20048;-59
2023/07/18 07:33:44;;;;;;;7.40;2.47;;;;;;;;;;5100088;27;20056;-62
2023/07/18 07:36:10;;;;;;;9.80;2.42;;;;;;;;;;5102280;28;20136;-60
2023/07/18 07:38:37;;;;;;;9.02;2.88;;;;;;;;;;5084854;28;20048;-60
2023/07/18 07:41:04;;;;;;;12.48;3.60;;;;;;;;;;5080702;27;20121;-60
2023/07/18 07:43:30;;;;;;;15.52;3.00;;;;;;;;;;5082343;28;20049;-62
2023/07/18 07:45:57;;;;;;;9.27;2.78;;;;;;;;;;5100811;28;20054;-58
2023/07/18 07:48:24;;;;;;;9.07;2.35;;;;;;;;;;5085374;28;20048;-61
2023/07/18 07:50:50;;;;;;;6.78;2.05;;;;;;;;;;5120199;27;20326;-64
2023/07/18 07:53:17;;;;;;;4.53;2.25;;;;;;;;;;5105897;28;20125;-62
2023/07/18 07:55:43;;;;;;;7.38;2.15;;;;;;;;;;5118549;27;20081;-60
2023/07/18 07:58:09;;;;;;;10.77;2.10;;;;;;;;;;5112434;27;20084;-62
2023/07/18 08:00:36;;;;;;;9.48;2.28;;;;;;;;;;5091221;27;20494;-62
2023/07/18 08:03:02;;;;;;;9.75;2.38;;;;;;;;;;5102155;28;20201;-61
2023/07/18 08:05:29;;;;;;;6.90;1.63;;;;;;;;;;5098686;28;20097;-61
2023/07/18 08:07:55;;;;;;;10.65;2.42;;;;;;;;;;5083798;28;20069;-63
2023/07/18 08:10:22;;;;;;;10.70;2.05;;;;;;;;;;5084425;28;20053;-62
2023/07/18 08:12:48;;;;;;;5.85;1.98;;;;;;;;;;5083602;27;20052;-62
2023/07/18 08:15:15;;;;;;;6.50;1.90;;;;;;;;;;5101896;27;20052;-65
2023/07/18 08:17:42;;;;;;;3.17;1.60;;;;;;;;;;5104770;27;20138;-65
2023/07/18 08:20:08;;;;;;;5.72;1.30;;;;;;;;;;5104977;28;20052;-63
2023/07/18 08:22:35;;;;;;;11.10;1.90;;;;;;;;;;5104642;27;20060;-62
2023/07/18 08:25:03;;;;;;;5.85;2.13;;;;;;;;;;5105799;27;20060;-64
2023/07/18 08:27:30;;;;;;;11.25;2.30;;;;;;;;;;5104672;27;20105;-62
2023/07/18 08:29:57;;;;;;;14.98;1.70;;;;;;;;;;5100726;28;20051;-64
2023/07/18 08:32:23;;;;;;;3.63;1.25;;;;;;;;;;5105222;27;20052;-64
2023/07/18 08:34:52;;;;;;;3.58;1.33;;;;;;;;;;5104937;27;20533;-63
2023/07/18 08:37:19;;;;;;;3.17;1.30;;;;;;;;;;5104848;27;20048;-63
2023/07/18 08:39:45;;;;;;;5.57;1.33;;;;;;;;;;5104962;28;20056;-64
2023/07/18 08:42:13;;;;;;;2.80;1.40;;;;;;;;;;5099434;27;20048;-65
2023/07/18 08:44:39;;;;;;;8.85;1.65;;;;;;;;;;5087772;27;20056;-61
2023/07/18 08:47:06;;;;;;;8.70;2.15;;;;;;;;;;5104688;27;20101;-64
2023/07/18 08:49:35;;;;;;;4.22;1.55;;;;;;;;;;5104877;28;20137;-59
2023/07/18 08:52:04;;;;;;;6.47;2.35;;;;;;;;;;5110509;27;20060;-65
2023/07/18 08:54:32;;;;;;;4.05;1.83;;;;;;;;;;5119839;27;20525;-65
2023/07/18 08:56:59;;;;;;;3.83;1.48;;;;;;;;;;5115227;27;20571;-64
2023/07/18 08:59:25;;;;;;;5.10;1.73;;;;;;;;;;5124613;27;20561;-66
2023/07/18 09:01:52;;;;;;;5.32;1.70;;;;;;;;;;5125691;27;20529;-66
2023/07/18 09:04:18;;;;;;;5.63;1.50;;;;;;;;;;5125556;27;20056;-64
2023/07/18 09:06:45;;;;;;;7.18;1.73;;;;;;;;;;5124164;27;20079;-63
2023/07/18 09:09:21;;;;;;;4.43;2.20;;;;;;;;;;5124159;27;20521;-64
2023/07/18 09:11:56;;;;;;;7.75;1.98;;;;;;;;;;5119468;27;20645;-64
2023/07/18 09:14:27;;;;;;;8.27;1.77;;;;;;;;;;5105522;27;20135;-64
2023/07/18 09:16:58;;;;;;;5.20;1.83;;;;;;;;;;5104496;28;20051;-63
2023/07/18 09:19:37;;;;;;;8.00;2.03;;;;;;;;;;5091119;27;20056;-62
2023/07/18 09:22:04;;;;;;;9.10;1.92;;;;;;;;;;5109863;27;20047;-62
2023/07/18 09:24:31;;;;;;;5.03;1.50;;;;;;;;;;5111000;27;20134;-61
2023/07/18 09:26:58;;;;;;;8.77;2.22;;;;;;;;;;5087680;28;20546;-62
2023/07/18 09:29:25;;;;;;;10.30;1.92;;;;;;;;;;5084098;28;20055;-62
2023/07/18 09:31:51;;;;;;;5.40;1.45;;;;;;;;;;5089587;28;20048;-62
2023/07/18 09:34:19;;;;;;;8.50;2.25;;;;;;;;;;5103495;27;20147;-62
2023/07/18 09:36:58;;;;;;;8.27;1.80;;;;;;;;;;5093588;27;20610;-62
2023/07/18 09:39:26;;;;;;;5.63;1.83;;;;;;;;;;5098815;27;20559;-61
2023/07/18 09:41:54;;;;;;;2.83;1.45;;;;;;;;;;5104399;28;20052;-63
2023/07/18 09:44:22;;;;;;;5.47;1.92;;;;;;;;;;5091000;27;20785;-62
2023/07/18 09:46:59;;;;;;;6.82;1.63;;;;;;;;;;5091905;27;20533;-63
2023/07/18 09:49:25;;;;;;;3.80;1.58;;;;;;;;;;5081590;28;20052;-63
2023/07/18 09:52:02;;;;;;;2.47;1.40;;;;;;;;;;5101394;28;20159;-63
2023/07/18 09:54:30;;;;;;;7.78;1.77;;;;;;;;;;5094322;27;20063;-63
2023/07/18 09:56:59;;;;;;;5.60;1.50;;;;;;;;;;5100807;27;20123;-62
2023/07/18 09:59:26;;;;;;;6.43;1.95;;;;;;;;;;5088919;27;20556;-63
2023/07/18 10:01:54;;;;;;;7.63;1.83;;;;;;;;;;5093029;27;20060;-57
2023/07/18 10:04:20;;;;;;;5.65;1.50;;;;;;;;;;5092742;28;20102;-62
2023/07/18 10:06:48;;;;;;;6.22;1.67;;;;;;;;;;5106943;27;20080;-58
2023/07/18 10:09:15;;;;;;;7.60;2.10;;;;;;;;;;5096769;27;20755;-63
2023/07/18 10:12:11;;;;;;;5.43;1.70;;;;;;;;;;5096115;27;20052;-63
2023/07/18 10:14:37;;;;;;;;;;;;;;;;;;5084832;27;20055;-62
2023/07/18 10:17:06;;;;;;;3.65;1.40;;;;;;;;;;5100835;28;45646;-62
2023/07/18 10:19:47;;;;;;;4.43;1.60;;;;;;;;;;5101153;27;20113;-65
2023/07/18 10:22:30;;;;;;;6.97;1.98;;;;;;;;;;5101888;27;20052;-65
2023/07/18 10:25:01;;;;;;;4.13;1.48;;;;;;;;;;5100698;27;20087;-64
2023/07/18 10:27:34;;;;;;;7.13;1.52;;;;;;;;;;5101988;27;20052;-59
2023/07/18 10:30:04;;;;;;;6.72;1.85;;;;;;;;;;5101220;28;20048;-57
2023/07/18 10:32:32;;;;;;;5.53;2.25;;;;;;;;;;5103627;27;20056;-56
2023/07/18 10:34:59;;;;;;;5.95;1.30;;;;;;;;;;5090735;27;20057;-58
2023/07/18 10:37:26;;;;;;;5.47;1.85;;;;;;;;;;5081553;28;20052;-60
2023/07/18 10:39:54;;;;;;;4.05;1.40;;;;;;;;;;5099230;27;20074;-59
2023/07/18 10:42:23;;;;;;;4.40;1.52;;;;;;;;;;5107608;27;20055;-59
2023/07/18 10:44:54;;;;;;;4.45;1.27;;;;;;;;;;5108162;27;20128;-60
2023/07/18 10:47:21;;;;;;;3.38;1.60;;;;;;;;;;5095317;27;20500;-61
2023/07/18 10:49:47;;;;;;;5.07;1.73;;;;;;;;;;5095889;27;20482;-59
2023/07/18 10:52:14;;;;;;;2.95;1.30;;;;;;;;;;5099898;27;20086;-59
2023/07/18 10:54:45;;;;;;;8.90;1.55;;;;;;;;;;5080430;28;20577;-58
2023/07/18 10:57:11;;;;;;;2.63;1.38;;;;;;;;;;5102147;27;20059;-60
2023/07/18 10:59:40;;;;;;;2.75;1.30;;;;;;;;;;5101792;27;20060;-60
2023/07/18 11:02:07;;;;;;;4.63;1.30;;;;;;;;;;5111857;27;20554;-67
2023/07/18 11:04:33;;;;;;;5.60;1.80;;;;;;;;;;5102263;27;20201;-61
2023/07/18 11:07:00;;;;;;;2.03;1.58;;;;;;;;;;5101934;27;20060;-69
2023/07/18 11:09:26;;;;;;;4.78;1.40;;;;;;;;;;5109001;27;20548;-65
2023/07/18 11:11:53;;;;;;;6.22;1.95;;;;;;;;;;5101297;28;20473;-64
2023/07/18 11:14:20;;;;;;;10.65;2.40;;;;;;;;;;5105362;27;20052;-66
2023/07/18 11:16:47;;;;;;;4.82;1.40;;;;;;;;;;5101319;28;20044;-70
2023/07/18 11:19:15;;;;;;;3.47;1.30;;;;;;;;;;5103828;27;20051;-71
2023/07/18 11:21:42;;;;;;;3.55;1.30;;;;;;;;;;5097166;27;20589;-67
2023/07/18 11:24:09;;;;;;;5.70;1.75;;;;;;;;;;5104473;28;20557;-65
2023/07/18 11:26:35;;;;;;;6.97;1.58;;;;;;;;;;5100480;27;20545;-69
2023/07/18 11:29:03;;;;;;;3.83;1.40;;;;;;;;;;5097128;28;20859;-70
2023/07/18 11:31:31;;;;;;;2.55;1.20;;;;;;;;;;5102796;27;20052;-65
2023/07/18 11:34:07;;;;;;;3.90;1.17;;;;;;;;;;5096737;27;20047;-63
2023/07/18 11:36:38;;;;;;;3.28;1.25;;;;;;;;;;5103423;27;20109;-72
2023/07/18 11:39:19;;;;;;;5.00;1.60;;;;;;;;;;5110401;27;20102;-73
2023/07/18 11:41:47;;;;;;;4.10;1.60;;;;;;;;;;5103291;27;20079;-67
2023/07/18 11:44:22;;;;;;;4.47;1.25;;;;;;;;;;5110988;27;20082;-69
2023/07/18 11:46:48;;;;;;;6.85;1.30;;;;;;;;;;5104436;27;20075;-71
2023/07/18 11:49:16;;;;;;;2.80;1.27;;;;;;;;;;5112639;27;20052;-67
2023/07/18 11:51:43;;;;;;;4.47;1.23;;;;;;;;;;5112524;27;20056;-71
2023/07/18 11:54:09;;;;;;;2.85;1.35;;;;;;;;;;5104372;27;20060;-60
2023/07/18 11:56:37;;;;;;;2.25;1.55;;;;;;;;;;5104843;28;20044;-61
2023/07/18 11:59:03;;;;;;;2.83;1.40;;;;;;;;;;5090203;27;20059;-64
2023/07/18 12:01:33;;;;;;;5.05;1.50;;;;;;;;;;5110368;27;20068;-67
2023/07/18 12:04:10;;;;;;;4.40;1.77;;;;;;;;;;5104621;28;20056;-68
2023/07/18 12:06:37;;;;;;;3.25;1.50;;;;;;;;;;5105325;27;20092;-67
2023/07/18 12:09:04;;;;;;;3.75;1.20;;;;;;;;;;5095466;27;20056;-74
2023/07/18 12:11:31;;;;;;;3.92;1.35;;;;;;;;;;5100192;27;20621;-68
2023/07/18 12:13:59;;;;;;;2.10;1.00;;;;;;;;;;5103134;27;20056;-67
2023/07/18 12:16:26;;;;;;;5.18;1.40;;;;;;;;;;5104228;27;20048;-72
2023/07/18 12:18:52;;;;;;;5.78;1.40;;;;;;;;;;5105615;27;20048;-67
2023/07/18 12:21:19;;;;;;;4.88;1.30;;;;;;;;;;5094710;27;20083;-65
2023/07/18 12:23:46;;;;;;;5.05;1.23;;;;;;;;;;5092592;28;20049;-60
2023/07/18 12:26:12;;;;;;;3.30;1.30;;;;;;;;;;5104470;28;20040;-73
2023/07/18 12:28:38;;;;;;;7.85;1.38;;;;;;;;;;5102850;27;20052;-70
2023/07/18 12:31:07;;;;;;;2.85;1.30;;;;;;;;;;5103563;27;20098;-71
2023/07/18 12:33:34;;;;;;;1.63;0.95;;;;;;;;;;5103856;27;20536;-63
2023/07/18 12:36:00;;;;;;;5.15;1.25;;;;;;;;;;5104455;28;20048;-69
2023/07/18 12:38:27;;;;;;;3.38;1.00;;;;;;;;;;5102941;27;20610;-71
2023/07/18 12:40:55;;;;;;;2.45;1.20;;;;;;;;;;5112130;27;20056;-69
2023/07/18 12:43:22;;;;;;;5.35;1.08;;;;;;;;;;5105908;27;20052;-70
2023/07/18 12:45:48;;;;;;;3.58;1.70;;;;;;;;;;5100554;27;20083;-67
2023/07/18 12:48:15;;;;;;;3.90;1.83;;;;;;;;;;5103828;27;20144;-67
2023/07/18 12:50:42;;;;;;;3.17;1.20;;;;;;;;;;5103840;27;20052;-63
2023/07/18 12:53:09;;;;;;;4.50;1.20;;;;;;;;;;5104354;27;20158;-66
2023/07/18 12:55:36;;;;;;;2.92;1.73;;;;;;;;;;5104920;27;20055;-71
2023/07/18 12:58:02;;;;;;;2.15;0.80;;;;;;;;;;5104566;28;20101;-63
2023/07/18 13:00:29;;;;;;;2.53;1.17;;;;;;;;;;5102134;27;20067;-69
2023/07/18 13:02:55;;;;;;;4.60;1.00;;;;;;;;;;5100254;27;20434;-65
2023/07/18 13:05:22;;;;;;;3.40;1.73;;;;;;;;;;5094649;27;20051;-73
2023/07/18 13:07:49;;;;;;;2.22;1.17;;;;;;;;;;5093672;28;20168;-68
2023/07/18 13:10:15;;;;;;;3.17;1.23;;;;;;;;;;5100825;27;20591;-70
2023/07/18 13:12:41;;;;;;;4.40;1.48;;;;;;;;;;5102305;27;20588;-71
2023/07/18 13:15:08;;;;;;;3.97;1.25;;;;;;;;;;5108499;27;20067;-74
2023/07/18 13:17:35;;;;;;;3.03;1.00;;;;;;;;;;5103758;28;20114;-67
2023/07/18 13:20:02;;;;;;;6.55;1.70;;;;;;;;;;5087665;27;20049;-71
2023/07/18 13:22:29;;;;;;;2.40;1.40;;;;;;;;;;5095947;28;20189;-66
2023/07/18 13:24:55;;;;;;;3.13;1.13;;;;;;;;;;5108001;27;20056;-72
2023/07/18 13:27:22;;;;;;;3.47;1.42;;;;;;;;;;5102027;28;20498;-70
2023/07/18 13:29:48;;;;;;;3.75;1.90;;;;;;;;;;5109377;27;20048;-63
2023/07/18 13:32:15;;;;;;;2.92;1.17;;;;;;;;;;5107945;27;20060;-66
2023/07/18 13:34:41;;;;;;;1.90;1.27;;;;;;;;;;5101668;27;20058;-72
2023/07/18 13:37:08;;;;;;;5.85;1.73;;;;;;;;;;5103456;28;21327;-64
2023/07/18 13:39:34;;;;;;;2.45;1.30;;;;;;;;;;5117478;27;20498;-64
2023/07/18 13:42:01;;;;;;;2.00;1.30;;;;;;;;;;5098922;27;20052;-73
2023/07/18 13:44:27;;;;;;;2.40;1.20;;;;;;;;;;5104565;27;20079;-68
2023/07/18 13:46:54;;;;;;;2.08;1.10;;;;;;;;;;5106683;27;20052;-71
2023/07/18 13:49:20;;;;;;;4.18;1.45;;;;;;;;;;5102953;27;20052;-67
2023/07/18 13:51:47;;;;;;;2.40;1.20;;;;;;;;;;5101770;28;20512;-69
2023/07/18 13:54:14;;;;;;;2.95;1.20;;;;;;;;;;5094194;27;20195;-69
2023/07/18 13:56:40;;;;;;;3.28;1.85;;;;;;;;;;5097542;27;20132;-64
2023/07/18 13:59:06;;;;;;;3.97;1.73;;;;;;;;;;5096499;27;20052;-70
2023/07/18 14:01:33;;;;;;;4.32;1.73;;;;;;;;;;5103718;27;20500;-68
2023/07/18 14:03:59;;;;;;;5.15;1.58;;;;;;;;;;5109512;27;20058;-68
2023/07/18 14:06:26;;;;;;;5.60;1.73;;;;;;;;;;5112154;27;20056;-65
2023/07/18 14:08:53;;;;;;;1.88;1.38;;;;;;;;;;5102008;28;20795;-69
2023/07/18 14:11:20;;;;;;;2.58;1.20;;;;;;;;;;5101551;28;20052;-70
2023/07/18 14:13:47;;;;;;;1.70;1.20;;;;;;;;;;5102393;28;20055;-63
2023/07/18 14:16:13;;;;;;;4.43;1.60;;;;;;;;;;5101542;27;20509;-65
2023/07/18 14:18:40;;;;;;;5.35;1.42;;;;;;;;;;5110357;27;20048;-70
2023/07/18 14:21:07;;;;;;;1.73;1.30;;;;;;;;;;5099387;27;20055;-67
2023/07/18 14:23:33;;;;;;;3.55;1.50;;;;;;;;;;5114367;27;20051;-67
2023/07/18 14:25:59;;;;;;;4.97;1.77;;;;;;;;;;5104575;27;20155;-61
2023/07/18 14:28:26;;;;;;;1.77;1.60;;;;;;;;;;5101343;28;20092;-66
2023/07/18 14:30:52;;;;;;;3.38;1.58;;;;;;;;;;5103067;28;20700;-62
2023/07/18 14:33:19;;;;;;;4.15;1.35;;;;;;;;;;5101566;28;20059;-66
2023/07/18 14:35:45;;;;;;;4.10;1.50;;;;;;;;;;5102352;27;20141;-70
2023/07/18 14:38:12;;;;;;;4.93;1.83;;;;;;;;;;5111613;27;20656;-68
2023/07/18 14:40:38;;;;;;;7.05;1.67;;;;;;;;;;5105658;27;20067;-61
2023/07/18 14:43:09;;;;;;;3.35;1.40;;;;;;;;;;5101767;27;20127;-67